KOJC

Johnson County Executive Airport

Olathe, Kansas, USA
METAR KOJC 200953Z AUTO 35005KT 10SM CLR M13/M16 A3032 RMK AO2 SLP287 T11281156 $
Observed Flight Rules
Jan-20 @ 09:53 UTC (an hour ago) Visual Flight Rules
Wind Visibility Clouds
350° at 5 knots 10 miles
  • Clear skies
Temperatures Readings
Current -13°C / 9°F
Dewpoint -16°C / 3°F
Humidity 78%
Altimeter 30.32" Hg
Pressure 1028.7 hPa
Elevation 326
METAR KOJC 200953Z AUTO 35005KT 10SM CLR M13/M16 A3032 RMK AO2 SLP287 T11281156 $
Observed Flight Rules
Jan-20 @ 09:53 UTC
(an hour ago)
VFR
Wind Visibility
350° at 5 knots 10 miles
Clouds
  • Clear skies
Temperature Dewpoint
-13°C / 9°F -16°C / 3°F
Humidity Altimeter Pressure
78% 30.32" Hg 1028.7 hPa